Time;durP1;ratioP1;P1;durP2;ratioP2;P2;SDS_P1;SDS_P2;PMS_P1;PMS_P2;Temp;Humidity;BMP_temperature;BMP_pressure;BME280_temperature;BME280_humidity;BME280_pressure;Samples;Min_cycle;Max_cycle;Signal;HPM_P1;HPM_P2
2022/06/02 00:01:33;;;;;;;7.32;4.70;;;;;;;;;;7330440;19;153919;-16
2022/06/02 00:04:13;;;;;;;10.70;4.75;;;;;;;;;;7331863;19;161867;-16
2022/06/02 00:06:50;;;;;;;8.38;4.80;;;;;;;;;;7331188;19;162292;-17
2022/06/02 00:09:37;;;;;;;9.68;4.88;;;;;;;;;;7331737;19;153951;-17
2022/06/02 00:12:14;;;;;;;11.05;4.38;;;;;;;;;;7332377;19;153507;-17
2022/06/02 00:14:52;;;;;;;9.85;4.85;;;;;;;;;;7330354;19;161836;-17
2022/06/02 00:17:33;;;;;;;8.85;4.28;;;;;;;;;;7329926;19;162448;-17
2022/06/02 00:20:08;;;;;;;6.60;4.00;;;;;;;;;;7329503;19;154175;-17
2022/06/02 00:22:50;;;;;;;8.32;4.40;;;;;;;;;;7331300;19;153787;-17
2022/06/02 00:25:30;;;;;;;6.35;4.43;;;;;;;;;;7330018;19;162197;-18
2022/06/02 00:28:08;;;;;;;9.77;4.97;;;;;;;;;;7331415;19;162616;-18
2022/06/02 00:30:46;;;;;;;7.22;4.18;;;;;;;;;;7331018;19;154040;-17
2022/06/02 00:33:28;;;;;;;6.32;4.07;;;;;;;;;;7331330;19;153498;-18
2022/06/02 00:36:03;;;;;;;8.10;4.10;;;;;;;;;;7330523;19;161757;-17
2022/06/02 00:38:37;;;;;;;5.68;3.90;;;;;;;;;;7329755;19;162179;-17
2022/06/02 00:41:23;;;;;;;6.07;4.03;;;;;;;;;;7330963;19;154259;-18
2022/06/02 00:44:10;;;;;;;7.65;3.90;;;;;;;;;;7329985;19;154142;-17
2022/06/02 00:46:59;;;;;;;8.55;4.30;;;;;;;;;;7330285;19;161825;-17
2022/06/02 00:49:41;;;;;;;7.00;4.40;;;;;;;;;;7330596;19;162627;-17
2022/06/02 00:52:31;;;;;;;6.05;3.78;;;;;;;;;;7329644;19;154318;-17
2022/06/02 00:58:06;;;;;;;;;;;;;;;;;;7337531;19;161811;-17
2022/06/02 01:00:42;;;;;;;6.05;3.97;;;;;;;;;;7334357;19;162729;-17
2022/06/02 01:03:18;;;;;;;5.18;3.42;;;;;;;;;;7337368;19;154198;-17
2022/06/02 01:06:15;;;;;;;7.03;3.20;;;;;;;;;;7337106;19;153747;-17
2022/06/02 01:09:08;;;;;;;4.55;3.97;;;;;;;;;;7336809;19;161992;-17
2022/06/02 01:11:46;;;;;;;7.05;4.00;;;;;;;;;;7335546;19;162830;-17
2022/06/02 01:14:33;;;;;;;5.20;3.45;;;;;;;;;;7336601;19;154851;-18
2022/06/02 01:17:15;;;;;;;5.95;3.58;;;;;;;;;;7335887;19;153673;-17
2022/06/02 01:20:09;;;;;;;6.95;4.28;;;;;;;;;;7335745;19;134148;-17
2022/06/02 01:23:01;;;;;;;6.25;3.40;;;;;;;;;;7336473;19;163551;-17
2022/06/02 01:25:49;;;;;;;7.23;3.83;;;;;;;;;;7336844;19;154338;-17
2022/06/02 01:28:56;;;;;;;5.05;3.65;;;;;;;;;;7336551;19;153555;-17
2022/06/02 01:31:56;;;;;;;6.75;4.22;;;;;;;;;;7335258;19;161892;-18
2022/06/02 01:34:46;;;;;;;4.43;3.50;;;;;;;;;;7334246;19;166175;-16
2022/06/02 01:37:25;;;;;;;5.93;3.63;;;;;;;;;;7335475;19;154001;-16
2022/06/02 01:40:08;;;;;;;3.60;3.30;;;;;;;;;;7335207;19;153568;-16
2022/06/02 01:42:53;;;;;;;4.32;3.10;;;;;;;;;;7334272;19;162633;-17
2022/06/02 01:45:47;;;;;;;4.82;3.85;;;;;;;;;;7335725;19;162642;-17
2022/06/02 01:48:30;;;;;;;5.57;3.42;;;;;;;;;;7336162;19;154066;-17
2022/06/02 01:51:05;;;;;;;;;;;;;;;;;;7335094;19;153593;-16
2022/06/02 01:53:53;;;;;;;3.72;3.35;;;;;;;;;;7335739;19;162039;-18
2022/06/02 01:57:00;;;;;;;5.82;3.67;;;;;;;;;;7335118;19;162530;-18
2022/06/02 01:59:42;;;;;;;5.47;3.55;;;;;;;;;;7331945;19;154589;-17
2022/06/02 02:02:23;;;;;;;5.32;3.25;;;;;;;;;;7335897;19;154249;-17
2022/06/02 02:05:15;;;;;;;4.18;2.85;;;;;;;;;;7335615;19;161845;-18
2022/06/02 02:08:09;;;;;;;6.72;3.28;;;;;;;;;;7331328;19;162423;-17
2022/06/02 02:10:53;;;;;;;4.20;3.75;;;;;;;;;;7333956;19;154221;-17
2022/06/02 02:13:35;;;;;;;3.97;3.03;;;;;;;;;;7336873;19;153880;-17
2022/06/02 02:16:26;;;;;;;3.95;3.00;;;;;;;;;;7332065;19;162075;-17
2022/06/02 02:19:11;;;;;;;5.40;3.75;;;;;;;;;;7331751;19;162719;-17
2022/06/02 02:21:55;;;;;;;3.50;3.05;;;;;;;;;;7329597;19;154149;-17
2022/06/02 02:24:42;;;;;;;4.88;3.53;;;;;;;;;;7332125;19;153396;-17
2022/06/02 02:27:32;;;;;;;3.13;2.58;;;;;;;;;;7331653;19;162133;-16
2022/06/02 02:30:07;;;;;;;3.78;2.80;;;;;;;;;;7330922;19;162418;-17
2022/06/02 02:32:45;;;;;;;4.60;3.42;;;;;;;;;;7331977;19;154072;-17
2022/06/02 02:35:23;;;;;;;3.65;3.10;;;;;;;;;;7331692;19;153558;-17
2022/06/02 02:38:04;;;;;;;3.60;3.00;;;;;;;;;;7330297;19;161885;-17
2022/06/02 02:40:42;;;;;;;3.90;3.13;;;;;;;;;;7330009;19;162328;-15
2022/06/02 02:43:21;;;;;;;6.00;3.22;;;;;;;;;;7331821;19;154539;-16
2022/06/02 02:45:58;;;;;;;5.28;3.50;;;;;;;;;;7331592;19;153494;-16
2022/06/02 02:48:38;;;;;;;3.67;3.35;;;;;;;;;;7329891;19;161843;-16
2022/06/02 02:51:16;;;;;;;6.65;3.42;;;;;;;;;;7329671;19;162438;-16
2022/06/02 02:53:56;;;;;;;5.07;3.25;;;;;;;;;;7331396;19;154138;-16
2022/06/02 02:56:33;;;;;;;7.50;3.75;;;;;;;;;;7331304;19;153689;-16
2022/06/02 02:59:09;;;;;;;3.40;2.90;;;;;;;;;;7330927;19;162488;-15
2022/06/02 03:01:49;;;;;;;4.28;3.10;;;;;;;;;;7327268;19;162494;-15
2022/06/02 03:04:36;;;;;;;3.80;2.88;;;;;;;;;;7331187;19;154014;-16
2022/06/02 03:07:09;;;;;;;4.32;3.05;;;;;;;;;;7330921;19;153527;-18
2022/06/02 03:09:47;;;;;;;3.03;2.72;;;;;;;;;;7330645;19;162472;-16
2022/06/02 03:12:30;;;;;;;3.58;2.90;;;;;;;;;;7330447;19;162380;-15
2022/06/02 03:15:13;;;;;;;3.88;2.58;;;;;;;;;;7330740;19;153815;-15
2022/06/02 03:18:01;;;;;;;4.50;3.00;;;;;;;;;;7330011;19;153468;-15
2022/06/02 03:20:44;;;;;;;3.17;2.90;;;;;;;;;;7329343;19;162268;-15
2022/06/02 03:23:44;;;;;;;3.55;2.53;;;;;;;;;;7329919;19;162324;-15
2022/06/02 03:26:26;;;;;;;4.10;2.80;;;;;;;;;;7330434;19;154171;-16
2022/06/02 03:29:05;;;;;;;3.80;2.58;;;;;;;;;;7330338;19;153413;-15
2022/06/02 03:31:44;;;;;;;3.80;2.97;;;;;;;;;;7328676;19;161916;-17
2022/06/02 03:34:19;;;;;;;3.13;2.65;;;;;;;;;;7329884;19;162550;-15
2022/06/02 03:37:01;;;;;;;3.45;2.78;;;;;;;;;;7329927;19;153834;-16
2022/06/02 03:39:43;;;;;;;3.17;2.90;;;;;;;;;;7334652;19;153709;-18
2022/06/02 03:42:34;;;;;;;4.13;2.87;;;;;;;;;;7326475;19;161806;-16
2022/06/02 03:45:16;;;;;;;3.60;2.75;;;;;;;;;;7329629;19;162601;-16
2022/06/02 03:47:56;;;;;;;5.60;2.50;;;;;;;;;;7329773;19;154206;-16
2022/06/02 03:50:53;;;;;;;4.15;2.50;;;;;;;;;;7329693;19;153622;-16
2022/06/02 03:53:45;;;;;;;3.92;2.83;;;;;;;;;;7326310;19;162035;-16
2022/06/02 03:56:32;;;;;;;2.78;2.45;;;;;;;;;;7329058;19;162413;-16
2022/06/02 03:59:21;;;;;;;4.30;2.92;;;;;;;;;;7329782;19;154223;-16
2022/06/02 04:01:59;;;;;;;2.53;2.08;;;;;;;;;;7327756;19;153477;-16
2022/06/02 04:04:41;;;;;;;3.38;2.58;;;;;;;;;;7328941;19;162112;-16
2022/06/02 04:07:33;;;;;;;4.57;2.90;;;;;;;;;;7328982;19;162368;-16
2022/06/02 04:10:10;;;;;;;3.95;2.47;;;;;;;;;;7329310;19;154063;-16
2022/06/02 04:16:26;;;;;;;2.40;2.20;;;;;;;;;;7325712;19;162502;-16
2022/06/02 04:22:22;;;;;;;4.00;2.88;;;;;;;;;;7325503;19;154135;-16
2022/06/02 04:25:09;;;;;;;2.33;2.03;;;;;;;;;;7328748;19;153669;-16
2022/06/02 04:27:49;;;;;;;2.90;2.58;;;;;;;;;;7328045;19;162070;-17
2022/06/02 04:30:24;;;;;;;2.17;2.03;;;;;;;;;;7331519;19;162295;-17
2022/06/02 04:33:08;;;;;;;4.13;2.75;;;;;;;;;;7335054;19;154059;-17
2022/06/02 04:35:47;;;;;;;2.78;2.58;;;;;;;;;;7334968;19;153859;-16
2022/06/02 04:38:26;;;;;;;2.30;2.10;;;;;;;;;;7334912;19;161830;-17
2022/06/02 04:41:09;;;;;;;3.33;2.92;;;;;;;;;;7333355;19;162339;-16
2022/06/02 04:43:50;;;;;;;3.13;2.90;;;;;;;;;;7335170;19;154675;-17
2022/06/02 04:46:35;;;;;;;3.00;2.70;;;;;;;;;;7335113;19;153793;-16
2022/06/02 04:49:17;;;;;;;4.82;3.15;;;;;;;;;;7334802;19;161909;-16
2022/06/02 04:51:57;;;;;;;3.15;2.80;;;;;;;;;;7333738;19;162407;-16
2022/06/02 04:54:40;;;;;;;3.10;2.90;;;;;;;;;;7334837;19;154208;-17
2022/06/02 04:57:22;;;;;;;3.50;3.20;;;;;;;;;;7334894;19;153677;-16
2022/06/02 05:00:04;;;;;;;3.90;3.60;;;;;;;;;;7334415;19;161929;-17
2022/06/02 05:02:46;;;;;;;3.13;2.92;;;;;;;;;;7332800;19;162484;-17
2022/06/02 05:05:29;;;;;;;3.42;3.13;;;;;;;;;;7334505;19;154039;-16
2022/06/02 05:08:27;;;;;;;3.22;2.78;;;;;;;;;;7334475;19;153553;-17
2022/06/02 05:11:10;;;;;;;4.18;3.10;;;;;;;;;;7333979;19;161961;-17
2022/06/02 05:13:51;;;;;;;2.90;2.70;;;;;;;;;;7333792;19;162431;-17
2022/06/02 05:16:28;;;;;;;2.88;2.60;;;;;;;;;;7334455;19;154069;-17
2022/06/02 05:19:34;;;;;;;2.88;2.20;;;;;;;;;;7334217;19;153560;-17
2022/06/02 05:22:39;;;;;;;3.97;2.92;;;;;;;;;;7332625;19;162077;-17
2022/06/02 05:25:49;;;;;;;3.15;2.75;;;;;;;;;;7331948;19;162412;-17
2022/06/02 05:28:52;;;;;;;2.97;2.40;;;;;;;;;;7333717;19;154023;-17
2022/06/02 05:31:46;;;;;;;2.50;2.30;;;;;;;;;;7332270;19;153770;-18
2022/06/02 05:34:47;;;;;;;3.42;2.50;;;;;;;;;;7333286;19;161853;-17
2022/06/02 05:37:44;;;;;;;2.47;2.28;;;;;;;;;;7332420;19;162389;-16
2022/06/02 05:40:22;;;;;;;1.88;1.75;;;;;;;;;;7332920;19;154159;-17
2022/06/02 05:43:07;;;;;;;3.22;1.90;;;;;;;;;;7331754;19;153448;-17
2022/06/02 05:45:53;;;;;;;2.47;1.92;;;;;;;;;;7332932;19;162090;-16
2022/06/02 05:48:43;;;;;;;2.40;1.65;;;;;;;;;;7332542;19;162418;-17
2022/06/02 05:51:20;;;;;;;2.53;1.67;;;;;;;;;;7332469;19;154033;-16
2022/06/02 05:54:11;;;;;;;2.83;1.85;;;;;;;;;;7332820;19;153643;-18
2022/06/02 05:56:53;;;;;;;2.67;1.60;;;;;;;;;;7331941;19;161809;-16
2022/06/02 05:59:55;;;;;;;1.92;1.58;;;;;;;;;;7331588;19;162344;-16
2022/06/02 06:03:02;;;;;;;2.42;1.70;;;;;;;;;;7328165;19;154274;-16
2022/06/02 06:05:40;;;;;;;2.25;1.45;;;;;;;;;;7334754;19;153899;-16
2022/06/02 06:08:30;;;;;;;1.40;1.30;;;;;;;;;;7332364;19;162017;-17
2022/06/02 06:11:19;;;;;;;1.58;1.48;;;;;;;;;;7331968;19;162659;-16
2022/06/02 06:14:16;;;;;;;1.98;1.48;;;;;;;;;;7331225;19;154290;-16
2022/06/02 06:16:59;;;;;;;1.77;1.52;;;;;;;;;;7332179;19;154283;-16
2022/06/02 06:19:48;;;;;;;3.17;1.58;;;;;;;;;;7331545;19;161824;-16
2022/06/02 06:22:38;;;;;;;5.75;1.58;;;;;;;;;;7330843;19;162517;-16
2022/06/02 06:25:36;;;;;;;2.47;1.42;;;;;;;;;;7331542;19;154137;-16
2022/06/02 06:28:17;;;;;;;2.47;1.40;;;;;;;;;;7331053;19;153533;-16
2022/06/02 06:31:00;;;;;;;1.85;1.60;;;;;;;;;;7330060;19;161818;-17
2022/06/02 06:33:54;;;;;;;4.47;1.70;;;;;;;;;;7330798;19;162163;-17
2022/06/02 06:36:47;;;;;;;1.50;1.40;;;;;;;;;;7330790;19;154325;-16
2022/06/02 06:39:30;;;;;;;2.17;1.60;;;;;;;;;;7331346;19;153681;-16
2022/06/02 06:42:46;;;;;;;2.30;1.58;;;;;;;;;;7330992;19;162415;-16
2022/06/02 06:45:23;;;;;;;3.08;1.65;;;;;;;;;;7329243;19;162446;-17
2022/06/02 06:48:00;;;;;;;3.55;1.67;;;;;;;;;;7330067;19;154206;-17
2022/06/02 06:50:40;;;;;;;2.85;1.90;;;;;;;;;;7330541;19;153547;-17
2022/06/02 06:53:34;;;;;;;2.75;1.33;;;;;;;;;;7325990;19;161911;-17
2022/06/02 06:56:14;;;;;;;2.00;1.60;;;;;;;;;;7330328;19;162606;-16
2022/06/02 06:58:59;;;;;;;1.67;1.58;;;;;;;;;;7331142;19;154065;-16
2022/06/02 07:01:48;;;;;;;1.70;1.60;;;;;;;;;;7330939;19;153645;-16
2022/06/02 07:04:36;;;;;;;2.30;1.63;;;;;;;;;;7328445;19;161862;-16
2022/06/02 07:07:15;;;;;;;5.43;2.15;;;;;;;;;;7330635;19;162618;-16
2022/06/02 07:09:55;;;;;;;3.60;2.00;;;;;;;;;;7330703;19;153992;-15
2022/06/02 07:15:26;;;;;;;1.67;1.58;;;;;;;;;;7327964;19;162118;-16
2022/06/02 07:18:06;;;;;;;3.38;1.92;;;;;;;;;;7325300;19;162967;-16
2022/06/02 07:20:54;;;;;;;3.30;1.92;;;;;;;;;;7330799;19;154057;-18
2022/06/02 07:23:47;;;;;;;1.77;1.67;;;;;;;;;;7329109;19;153513;-17
2022/06/02 07:26:34;;;;;;;6.05;2.05;;;;;;;;;;7330186;19;161805;-17
2022/06/02 07:29:13;;;;;;;2.10;1.67;;;;;;;;;;7330008;19;162503;-17
2022/06/02 07:32:14;;;;;;;2.20;1.77;;;;;;;;;;7330485;19;154123;-17
2022/06/02 07:35:13;;;;;;;4.78;1.80;;;;;;;;;;7330377;19;153667;-16
2022/06/02 07:37:50;;;;;;;3.05;2.10;;;;;;;;;;7329770;19;161815;-17
2022/06/02 07:40:40;;;;;;;2.88;1.95;;;;;;;;;;7329658;19;162301;-17
2022/06/02 07:43:44;;;;;;;2.15;1.85;;;;;;;;;;7329347;19;153777;-17
2022/06/02 07:46:31;;;;;;;2.45;1.98;;;;;;;;;;7328507;19;153735;-17
2022/06/02 07:49:17;;;;;;;7.10;2.20;;;;;;;;;;7329102;19;161821;-17
2022/06/02 07:51:59;;;;;;;2.72;2.08;;;;;;;;;;7326777;19;162551;-17
2022/06/02 07:54:41;;;;;;;2.90;2.20;;;;;;;;;;7329757;19;154312;-17
2022/06/02 07:57:21;;;;;;;4.97;2.03;;;;;;;;;;7329546;19;153659;-17
2022/06/02 08:00:05;;;;;;;3.50;2.08;;;;;;;;;;7328997;19;162134;-17
2022/06/02 08:03:08;;;;;;;4.93;3.25;;;;;;;;;;7328635;19;162206;-17
2022/06/02 08:05:46;;;;;;;4.47;3.00;;;;;;;;;;7333361;19;154042;-17
2022/06/02 08:08:29;;;;;;;4.88;2.55;;;;;;;;;;7336654;19;153911;-17
2022/06/02 08:11:23;;;;;;;3.90;3.43;;;;;;;;;;7335205;19;161964;-16
2022/06/02 08:14:07;;;;;;;3.55;2.53;;;;;;;;;;7334042;19;162272;-17
2022/06/02 08:16:52;;;;;;;5.28;2.78;;;;;;;;;;7335675;19;154053;-17
2022/06/02 08:19:37;;;;;;;6.93;3.88;;;;;;;;;;7335389;19;153594;-17
2022/06/02 08:22:13;;;;;;;5.40;3.08;;;;;;;;;;7335156;19;162020;-16
2022/06/02 08:25:02;;;;;;;5.47;3.45;;;;;;;;;;7332391;19;162388;-16
2022/06/02 08:27:58;;;;;;;3.70;3.30;;;;;;;;;;7335160;19;154926;-17
2022/06/02 08:30:37;;;;;;;7.13;3.28;;;;;;;;;;7335127;19;153585;-16
2022/06/02 08:33:31;;;;;;;5.55;2.92;;;;;;;;;;7334697;19;162242;-17
2022/06/02 08:36:11;;;;;;;6.43;3.65;;;;;;;;;;7333810;19;162453;-16
2022/06/02 08:39:07;;;;;;;5.60;3.65;;;;;;;;;;7335135;19;154428;-17
2022/06/02 08:42:06;;;;;;;5.10;3.85;;;;;;;;;;7335073;19;153670;-16
2022/06/02 08:45:09;;;;;;;6.25;3.47;;;;;;;;;;7333122;19;161796;-16
2022/06/02 08:48:10;;;;;;;4.70;3.28;;;;;;;;;;7334393;19;162968;-16
2022/06/02 08:51:16;;;;;;;6.93;3.35;;;;;;;;;;7333557;19;154068;-16
2022/06/02 08:54:25;;;;;;;4.95;3.67;;;;;;;;;;7334435;19;153693;-16
2022/06/02 08:57:26;;;;;;;12.35;3.88;;;;;;;;;;7334104;19;161739;-16
2022/06/02 09:00:23;;;;;;;4.20;2.78;;;;;;;;;;7333279;19;162635;-16
2022/06/02 09:03:23;;;;;;;3.60;3.13;;;;;;;;;;7333019;19;154333;-16
2022/06/02 09:06:29;;;;;;;3.92;3.20;;;;;;;;;;7331339;19;153692;-15
2022/06/02 09:09:22;;;;;;;3.10;2.72;;;;;;;;;;7332327;19;162403;-16
2022/06/02 09:12:16;;;;;;;6.25;3.40;;;;;;;;;;7335222;19;162686;-16
2022/06/02 09:15:12;;;;;;;5.00;3.60;;;;;;;;;;7334094;19;154129;-15
2022/06/02 09:17:49;;;;;;;4.03;3.58;;;;;;;;;;7333845;19;154117;-16
2022/06/02 09:20:35;;;;;;;4.93;3.55;;;;;;;;;;7333636;19;161977;-16
2022/06/02 09:23:17;;;;;;;3.72;2.90;;;;;;;;;;7332358;19;162574;-16
2022/06/02 09:26:04;;;;;;;3.70;3.40;;;;;;;;;;7331735;19;154010;-16
2022/06/02 09:28:52;;;;;;;3.92;3.45;;;;;;;;;;7333544;19;153565;-16
2022/06/02 09:31:40;;;;;;;4.57;3.53;;;;;;;;;;7333135;19;162080;-16
2022/06/02 09:34:43;;;;;;;5.38;3.67;;;;;;;;;;7333201;19;162505;-16
2022/06/02 09:37:52;;;;;;;5.88;3.80;;;;;;;;;;7333493;19;154068;-16
2022/06/02 09:40:40;;;;;;;10.40;3.60;;;;;;;;;;7333207;19;153565;-16
2022/06/02 09:43:36;;;;;;;4.53;3.67;;;;;;;;;;7332836;19;161653;-16
2022/06/02 09:46:37;;;;;;;4.88;3.60;;;;;;;;;;7330289;19;162525;-15
2022/06/02 09:49:46;;;;;;;3.38;2.78;;;;;;;;;;7333111;19;154120;-16
2022/06/02 09:52:30;;;;;;;3.97;3.60;;;;;;;;;;7329401;19;153857;-16
2022/06/02 09:55:21;;;;;;;3.17;2.97;;;;;;;;;;7332656;19;161993;-16
2022/06/02 09:58:06;;;;;;;3.63;3.28;;;;;;;;;;7331904;19;162486;-15
2022/06/02 10:00:49;;;;;;;4.00;3.50;;;;;;;;;;7332863;19;154203;-16
2022/06/02 10:03:54;;;;;;;4.90;3.70;;;;;;;;;;7332430;19;153611;-16
2022/06/02 10:07:03;;;;;;;4.10;3.50;;;;;;;;;;7328078;19;162010;-15
2022/06/02 10:09:51;;;;;;;3.65;3.30;;;;;;;;;;7331844;19;162490;-16
2022/06/02 10:15:32;;;;;;;5.05;3.55;;;;;;;;;;7332175;19;153509;-16
2022/06/02 10:18:30;;;;;;;3.50;3.20;;;;;;;;;;7331660;19;162040;-16
2022/06/02 10:21:19;;;;;;;3.72;3.35;;;;;;;;;;7331592;19;162360;-16
2022/06/02 10:24:27;;;;;;;5.22;3.67;;;;;;;;;;7331866;19;154030;-15
2022/06/02 10:27:15;;;;;;;5.75;3.88;;;;;;;;;;7328967;19;153442;-15
2022/06/02 10:30:26;;;;;;;5.32;3.20;;;;;;;;;;7331584;19;162354;-16
2022/06/02 10:33:35;;;;;;;4.38;3.83;;;;;;;;;;7329438;19;162578;-16
2022/06/02 10:36:42;;;;;;;5.75;3.40;;;;;;;;;;7329870;19;154178;-16
2022/06/02 10:39:35;;;;;;;5.20;3.60;;;;;;;;;;7329774;19;154089;-16
2022/06/02 10:42:30;;;;;;;3.75;3.42;;;;;;;;;;7331127;19;161879;-16
2022/06/02 10:45:28;;;;;;;4.25;3.85;;;;;;;;;;7330411;19;162599;-15
2022/06/02 10:48:40;;;;;;;4.05;3.50;;;;;;;;;;7329842;19;154566;-16
2022/06/02 10:51:38;;;;;;;6.18;3.90;;;;;;;;;;7330098;19;153344;-16
2022/06/02 10:54:33;;;;;;;4.63;3.88;;;;;;;;;;7330869;19;162076;-16
2022/06/02 10:57:33;;;;;;;4.45;3.58;;;;;;;;;;7330548;19;162363;-15
2022/06/02 11:00:22;;;;;;;5.55;3.83;;;;;;;;;;7329744;19;154000;-16
2022/06/02 11:03:23;;;;;;;6.07;3.45;;;;;;;;;;7330734;19;153486;-16
2022/06/02 11:06:24;;;;;;;7.00;4.15;;;;;;;;;;7329026;19;161801;-16
2022/06/02 11:09:34;;;;;;;4.55;3.63;;;;;;;;;;7330189;19;162512;-16
2022/06/02 11:12:43;;;;;;;6.43;3.58;;;;;;;;;;7329252;19;154127;-15
2022/06/02 11:15:37;;;;;;;4.88;3.60;;;;;;;;;;7330549;19;153528;-16
2022/06/02 11:18:34;;;;;;;4.47;3.20;;;;;;;;;;7332177;19;162150;-16
2022/06/02 11:21:38;;;;;;;3.63;3.08;;;;;;;;;;7330056;19;162645;-16
2022/06/02 11:24:39;;;;;;;4.60;3.25;;;;;;;;;;7329619;19;154130;-17
2022/06/02 11:27:37;;;;;;;3.78;3.17;;;;;;;;;;7327536;19;153761;-17
2022/06/02 11:31:00;;;;;;;6.70;3.53;;;;;;;;;;7329378;19;162145;-16
2022/06/02 11:34:21;;;;;;;4.05;3.70;;;;;;;;;;7328304;19;162891;-16
2022/06/02 11:37:25;;;;;;;4.35;3.00;;;;;;;;;;7330108;19;154231;-16
2022/06/02 11:40:18;;;;;;;4.95;3.00;;;;;;;;;;7329677;19;153660;-16
2022/06/02 11:43:03;;;;;;;2.70;2.47;;;;;;;;;;7329638;19;161795;-15
2022/06/02 11:45:54;;;;;;;3.40;3.10;;;;;;;;;;7329055;19;162810;-17
2022/06/02 11:48:40;;;;;;;;;;;;;;;;;;7330283;19;154058;-15
2022/06/02 11:51:35;;;;;;;4.65;3.38;;;;;;;;;;7329517;19;153316;-16
2022/06/02 11:54:27;;;;;;;3.33;2.92;;;;;;;;;;7328492;19;162005;-16
2022/06/02 11:57:17;;;;;;;3.90;3.03;;;;;;;;;;7329056;19;162497;-16
2022/06/02 12:00:13;;;;;;;3.40;3.10;;;;;;;;;;7328128;19;154077;-16
2022/06/02 12:03:10;;;;;;;3.42;3.13;;;;;;;;;;7329207;19;153494;-16
2022/06/02 12:06:10;;;;;;;3.47;3.17;;;;;;;;;;7332846;19;161801;-16
2022/06/02 12:09:19;;;;;;;3.78;3.15;;;;;;;;;;7328758;19;162401;-16
2022/06/02 12:12:09;;;;;;;6.20;3.10;;;;;;;;;;7328862;19;154102;-16
2022/06/02 12:15:04;;;;;;;3.38;3.00;;;;;;;;;;7328741;19;153720;-17
2022/06/02 12:18:02;;;;;;;5.50;3.05;;;;;;;;;;7328404;19;161816;-17
2022/06/02 12:20:59;;;;;;;3.72;3.20;;;;;;;;;;7327102;19;162773;-17
2022/06/02 12:23:52;;;;;;;3.60;3.28;;;;;;;;;;7327350;19;154188;-16
2022/06/02 12:26:37;;;;;;;3.97;2.90;;;;;;;;;;7327707;19;153437;-17
2022/06/02 12:29:23;;;;;;;3.25;2.72;;;;;;;;;;7328044;19;162167;-17
2022/06/02 12:32:11;;;;;;;5.28;3.25;;;;;;;;;;7327898;19;162386;-17
2022/06/02 12:35:10;;;;;;;3.63;2.60;;;;;;;;;;7328431;19;154311;-16
2022/06/02 12:38:13;;;;;;;3.28;2.70;;;;;;;;;;7327734;19;153527;-16
2022/06/02 12:40:58;;;;;;;2.85;2.65;;;;;;;;;;7326942;19;162098;-17
2022/06/02 12:43:51;;;;;;;4.00;2.90;;;;;;;;;;7328533;19;162320;-16
2022/06/02 12:46:52;;;;;;;2.60;2.40;;;;;;;;;;7331612;19;153995;-16
2022/06/02 12:49:53;;;;;;;7.95;2.92;;;;;;;;;;7327825;19;153620;-17
2022/06/02 12:52:54;;;;;;;6.70;2.92;;;;;;;;;;7332189;19;161628;-17
2022/06/02 12:55:52;;;;;;;5.35;3.25;;;;;;;;;;7334323;19;162527;-17
2022/06/02 12:59:03;;;;;;;3.13;2.30;;;;;;;;;;7334700;19;154263;-17
2022/06/02 13:01:57;;;;;;;4.70;2.40;;;;;;;;;;7334649;19;153519;-17
2022/06/02 13:05:10;;;;;;;2.92;2.72;;;;;;;;;;7333848;19;161878;-17
2022/06/02 13:08:08;;;;;;;2.92;2.40;;;;;;;;;;7331375;19;162440;-17
2022/06/02 13:10:57;;;;;;;4.05;2.50;;;;;;;;;;7334250;19;154007;-17
2022/06/02 13:14:03;;;;;;;8.32;2.63;;;;;;;;;;7335894;19;153842;-17
2022/06/02 13:17:07;;;;;;;4.30;2.85;;;;;;;;;;7331749;19;161992;-17
2022/06/02 13:20:07;;;;;;;4.07;2.53;;;;;;;;;;7333251;19;162318;-17
2022/06/02 13:23:13;;;;;;;3.55;2.72;;;;;;;;;;7333213;19;154047;-17
2022/06/02 13:26:05;;;;;;;6.85;4.80;;;;;;;;;;7333596;19;153511;-17
2022/06/02 13:29:07;;;;;;;8.47;5.80;;;;;;;;;;7330734;19;162315;-17
2022/06/02 13:32:10;;;;;;;12.68;5.97;;;;;;;;;;7332619;19;162844;-17
2022/06/02 13:35:25;;;;;;;9.77;6.28;;;;;;;;;;7332984;19;154192;-17
2022/06/02 13:38:38;;;;;;;10.10;5.63;;;;;;;;;;7332954;19;153601;-17
2022/06/02 13:41:44;;;;;;;11.13;6.57;;;;;;;;;;7330877;19;161845;-18
2022/06/02 13:44:38;;;;;;;9.20;6.00;;;;;;;;;;7330422;19;162597;-18
2022/06/02 13:47:38;;;;;;;7.90;5.82;;;;;;;;;;7330942;19;154177;-17
2022/06/02 13:50:36;;;;;;;10.05;5.93;;;;;;;;;;7332932;19;153503;-17
2022/06/02 13:57:30;;;;;;;22.05;15.82;;;;;;;;;;7330369;19;162175;-17
2022/06/02 13:59:59;;;;;;;40.63;28.50;;;;;;;;;;7332387;19;154302;-18
2022/06/02 14:03:02;;;;;;;50.67;31.90;;;;;;;;;;7332380;19;153574;-18
2022/06/02 14:06:05;;;;;;;41.08;30.20;;;;;;;;;;7332295;19;161978;-17
2022/06/02 14:09:05;;;;;;;43.10;29.37;;;;;;;;;;7329958;19;162449;-17
2022/06/02 14:11:50;;;;;;;39.03;26.63;;;;;;;;;;7332375;19;154320;-18
2022/06/02 14:14:45;;;;;;;40.97;26.50;;;;;;;;;;7332239;19;153404;-17
2022/06/02 14:17:29;;;;;;;37.92;26.50;;;;;;;;;;7331659;19;162036;-18
2022/06/02 14:20:32;;;;;;;36.28;25.70;;;;;;;;;;7331821;19;162524;-17
2022/06/02 14:23:29;;;;;;;38.20;25.13;;;;;;;;;;7332186;19;154286;-18
2022/06/02 14:26:16;;;;;;;35.90;25.02;;;;;;;;;;7331895;19;153612;-17
2022/06/02 14:29:00;;;;;;;30.95;21.65;;;;;;;;;;7329307;19;161966;-17
2022/06/02 14:31:43;;;;;;;35.05;22.63;;;;;;;;;;7331365;19;162542;-17
2022/06/02 14:34:29;;;;;;;30.77;21.95;;;;;;;;;;7331601;19;154051;-17
2022/06/02 14:37:09;;;;;;;28.45;21.33;;;;;;;;;;7331284;19;153668;-17
2022/06/02 14:39:56;;;;;;;30.20;20.70;;;;;;;;;;7330834;19;161960;-17
2022/06/02 14:45:35;;;;;;;25.02;17.70;;;;;;;;;;7331330;19;154529;-17
2022/06/02 14:48:13;;;;;;;24.95;18.35;;;;;;;;;;7330109;19;153623;-17
2022/06/02 14:50:56;;;;;;;24.63;17.65;;;;;;;;;;7330559;19;161898;-17
2022/06/02 14:53:45;;;;;;;24.38;17.77;;;;;;;;;;7327907;19;162385;-17
2022/06/02 14:56:30;;;;;;;25.05;17.13;;;;;;;;;;7330758;19;154016;-17
2022/06/02 14:59:16;;;;;;;25.35;16.48;;;;;;;;;;7330533;19;153868;-17
2022/06/02 15:01:56;;;;;;;21.40;15.93;;;;;;;;;;7330317;19;161829;-18
2022/06/02 15:04:46;;;;;;;23.75;15.57;;;;;;;;;;7330171;19;162509;-17
2022/06/02 15:07:47;;;;;;;20.17;13.75;;;;;;;;;;7330154;19;154386;-16
2022/06/02 15:10:31;;;;;;;20.63;13.43;;;;;;;;;;7330477;19;153868;-17
2022/06/02 15:13:31;;;;;;;19.80;13.98;;;;;;;;;;7329173;19;161960;-16
2022/06/02 15:16:14;;;;;;;20.15;13.25;;;;;;;;;;7329877;19;162368;-16
2022/06/02 15:19:15;;;;;;;14.95;11.93;;;;;;;;;;7329863;19;153960;-16
2022/06/02 15:22:00;;;;;;;20.73;13.05;;;;;;;;;;7329525;19;153864;-17
2022/06/02 15:24:49;;;;;;;14.60;12.07;;;;;;;;;;7329489;19;161923;-16
2022/06/02 15:27:36;;;;;;;16.92;11.95;;;;;;;;;;7329459;19;162522;-17
2022/06/02 15:30:25;;;;;;;15.18;11.20;;;;;;;;;;7329595;19;154211;-17
2022/06/02 15:33:18;;;;;;;14.48;10.60;;;;;;;;;;7329616;19;153649;-17
2022/06/02 15:36:07;;;;;;;15.60;10.50;;;;;;;;;;7328413;19;162025;-16
2022/06/02 15:39:08;;;;;;;14.48;10.00;;;;;;;;;;7328897;19;162644;-17
2022/06/02 15:42:10;;;;;;;13.30;9.85;;;;;;;;;;7329153;19;153914;-16
2022/06/02 15:45:31;;;;;;;16.80;10.05;;;;;;;;;;7329037;19;153720;-16
2022/06/02 15:48:51;;;;;;;12.10;9.65;;;;;;;;;;7328361;19;161800;-17
2022/06/02 15:51:54;;;;;;;12.18;9.45;;;;;;;;;;7328750;19;162576;-17
2022/06/02 15:54:56;;;;;;;13.48;9.50;;;;;;;;;;7327915;19;154227;-16
2022/06/02 15:58:08;;;;;;;12.40;8.90;;;;;;;;;;7328811;19;153630;-17
2022/06/02 16:01:20;;;;;;;12.45;8.43;;;;;;;;;;7328454;19;161918;-16
2022/06/02 16:04:23;;;;;;;11.13;8.27;;;;;;;;;;7327991;19;162736;-16
2022/06/02 16:07:23;;;;;;;10.05;7.85;;;;;;;;;;7328635;19;154106;-16
2022/06/02 16:13:46;;;;;;;11.63;8.05;;;;;;;;;;7328381;19;161663;-16
2022/06/02 16:17:04;;;;;;;10.85;7.88;;;;;;;;;;7327342;19;162506;-16
2022/06/02 16:20:11;;;;;;;11.38;7.38;;;;;;;;;;7327170;19;154342;-16
2022/06/02 16:23:25;;;;;;;12.85;7.38;;;;;;;;;;7326749;19;153665;-17
2022/06/02 16:26:27;;;;;;;11.88;7.45;;;;;;;;;;7328250;19;161847;-16
2022/06/02 16:29:32;;;;;;;10.05;6.90;;;;;;;;;;7333523;19;162567;-18
2022/06/02 16:32:22;;;;;;;8.30;6.68;;;;;;;;;;7334612;19;153934;-17
2022/06/02 16:35:22;;;;;;;10.73;7.13;;;;;;;;;;7334396;19;153571;-23
2022/06/02 16:38:13;;;;;;;10.00;6.22;;;;;;;;;;7334425;19;162009;-17
2022/06/02 16:40:55;;;;;;;8.88;6.28;;;;;;;;;;7334227;19;162158;-17
2022/06/02 16:43:54;;;;;;;7.77;5.93;;;;;;;;;;7334865;19;154380;-17
2022/06/02 16:46:50;;;;;;;9.07;6.35;;;;;;;;;;7334991;19;153500;-17
2022/06/02 16:50:03;;;;;;;9.15;6.07;;;;;;;;;;7333082;19;161757;-17
2022/06/02 16:53:09;;;;;;;9.07;5.57;;;;;;;;;;7331286;19;162495;-17
2022/06/02 16:55:55;;;;;;;7.05;5.20;;;;;;;;;;7333924;19;154017;-16
2022/06/02 16:58:52;;;;;;;7.30;4.97;;;;;;;;;;7334199;19;153782;-17
2022/06/02 17:01:44;;;;;;;9.38;5.60;;;;;;;;;;7337402;19;162170;-17
2022/06/02 17:04:45;;;;;;;6.50;4.78;;;;;;;;;;7332724;19;162581;-17
2022/06/02 17:07:27;;;;;;;8.48;4.38;;;;;;;;;;7337459;19;154101;-17
2022/06/02 17:10:15;;;;;;;6.63;4.68;;;;;;;;;;7332292;19;153551;-17